sensor_id;sensor_type;location;lat;lon;timestamp;P1;durP1;ratioP1;P2;durP2;ratioP2
22334;SDS011;11335;43.848;25.958;2022-10-31T00:01:35;14.57;;;8.30;;
22334;SDS011;11335;43.848;25.958;2022-10-31T00:04:21;12.40;;;8.15;;
22334;SDS011;11335;43.848;25.958;2022-10-31T00:07:07;14.73;;;8.40;;
22334;SDS011;11335;43.848;25.958;2022-10-31T00:09:53;14.45;;;8.13;;
22334;SDS011;11335;43.848;25.958;2022-10-31T00:12:38;13.13;;;8.32;;
22334;SDS011;11335;43.848;25.958;2022-10-31T00:15:24;14.68;;;8.45;;
22334;SDS011;11335;43.848;25.958;2022-10-31T00:18:09;17.25;;;8.55;;
22334;SDS011;11335;43.848;25.958;2022-10-31T00:21:01;13.32;;;8.48;;
22334;SDS011;11335;43.848;25.958;2022-10-31T00:23:48;14.23;;;8.43;;
22334;SDS011;11335;43.848;25.958;2022-10-31T00:26:33;15.52;;;9.30;;
22334;SDS011;11335;43.848;25.958;2022-10-31T00:29:19;13.45;;;8.63;;
22334;SDS011;11335;43.848;25.958;2022-10-31T00:32:04;13.70;;;8.48;;
22334;SDS011;11335;43.848;25.958;2022-10-31T00:34:50;13.00;;;8.18;;
22334;SDS011;11335;43.848;25.958;2022-10-31T00:37:35;11.75;;;8.13;;
22334;SDS011;11335;43.848;25.958;2022-10-31T00:40:21;11.23;;;7.78;;
22334;SDS011;11335;43.848;25.958;2022-10-31T00:43:07;10.80;;;8.02;;
22334;SDS011;11335;43.848;25.958;2022-10-31T00:45:52;10.70;;;7.63;;
22334;SDS011;11335;43.848;25.958;2022-10-31T00:48:38;13.18;;;8.05;;
22334;SDS011;11335;43.848;25.958;2022-10-31T00:51:23;15.20;;;8.35;;
22334;SDS011;11335;43.848;25.958;2022-10-31T00:54:09;14.90;;;8.60;;
22334;SDS011;11335;43.848;25.958;2022-10-31T00:56:55;12.98;;;8.15;;
22334;SDS011;11335;43.848;25.958;2022-10-31T00:59:40;14.82;;;8.23;;
22334;SDS011;11335;43.848;25.958;2022-10-31T01:02:26;11.07;;;8.35;;
22334;SDS011;11335;43.848;25.958;2022-10-31T01:05:11;14.85;;;8.73;;
22334;SDS011;11335;43.848;25.958;2022-10-31T01:07:58;13.93;;;7.78;;
22334;SDS011;11335;43.848;25.958;2022-10-31T01:10:43;14.52;;;8.23;;
22334;SDS011;11335;43.848;25.958;2022-10-31T01:13:29;12.35;;;8.68;;
22334;SDS011;11335;43.848;25.958;2022-10-31T01:16:16;13.60;;;8.00;;
22334;SDS011;11335;43.848;25.958;2022-10-31T01:19:02;13.80;;;7.85;;
22334;SDS011;11335;43.848;25.958;2022-10-31T01:21:48;13.15;;;8.00;;
22334;SDS011;11335;43.848;25.958;2022-10-31T01:24:34;12.20;;;8.52;;
22334;SDS011;11335;43.848;25.958;2022-10-31T01:27:19;11.85;;;7.63;;
22334;SDS011;11335;43.848;25.958;2022-10-31T01:30:05;14.13;;;9.50;;
22334;SDS011;11335;43.848;25.958;2022-10-31T01:32:51;10.90;;;8.15;;
22334;SDS011;11335;43.848;25.958;2022-10-31T01:35:36;12.80;;;8.00;;
22334;SDS011;11335;43.848;25.958;2022-10-31T01:38:22;15.35;;;7.95;;
22334;SDS011;11335;43.848;25.958;2022-10-31T01:41:08;13.32;;;8.20;;
22334;SDS011;11335;43.848;25.958;2022-10-31T01:43:59;15.30;;;8.55;;
22334;SDS011;11335;43.848;25.958;2022-10-31T01:46:49;14.23;;;8.43;;
22334;SDS011;11335;43.848;25.958;2022-10-31T01:49:40;12.10;;;8.02;;
22334;SDS011;11335;43.848;25.958;2022-10-31T01:52:45;15.00;;;8.95;;
22334;SDS011;11335;43.848;25.958;2022-10-31T01:55:33;14.05;;;8.15;;
22334;SDS011;11335;43.848;25.958;2022-10-31T01:58:21;11.75;;;7.95;;
22334;SDS011;11335;43.848;25.958;2022-10-31T02:01:08;12.40;;;8.38;;
22334;SDS011;11335;43.848;25.958;2022-10-31T02:03:54;14.23;;;8.88;;
22334;SDS011;11335;43.848;25.958;2022-10-31T02:06:56;11.82;;;8.88;;
22334;SDS011;11335;43.848;25.958;2022-10-31T02:09:43;18.20;;;9.25;;
22334;SDS011;11335;43.848;25.958;2022-10-31T02:12:30;17.92;;;8.98;;
22334;SDS011;11335;43.848;25.958;2022-10-31T02:15:16;12.60;;;8.95;;
22334;SDS011;11335;43.848;25.958;2022-10-31T02:18:02;12.40;;;8.65;;
22334;SDS011;11335;43.848;25.958;2022-10-31T02:20:51;17.00;;;9.70;;
22334;SDS011;11335;43.848;25.958;2022-10-31T02:29:31;16.33;;;9.88;;
22334;SDS011;11335;43.848;25.958;2022-10-31T02:32:21;19.40;;;10.80;;
22334;SDS011;11335;43.848;25.958;2022-10-31T02:40:59;19.00;;;11.68;;
22334;SDS011;11335;43.848;25.958;2022-10-31T02:43:57;17.45;;;10.82;;
22334;SDS011;11335;43.848;25.958;2022-10-31T02:52:21;23.80;;;11.55;;
22334;SDS011;11335;43.848;25.958;2022-10-31T02:55:11;18.75;;;11.60;;
22334;SDS011;11335;43.848;25.958;2022-10-31T02:58:07;18.55;;;11.13;;
22334;SDS011;11335;43.848;25.958;2022-10-31T03:04:02;20.20;;;11.25;;
22334;SDS011;11335;43.848;25.958;2022-10-31T03:07:15;17.15;;;10.50;;
22334;SDS011;11335;43.848;25.958;2022-10-31T03:15:43;15.27;;;10.50;;
22334;SDS011;11335;43.848;25.958;2022-10-31T03:18:29;15.70;;;9.88;;
22334;SDS011;11335;43.848;25.958;2022-10-31T03:21:20;15.50;;;10.50;;
22334;SDS011;11335;43.848;25.958;2022-10-31T03:24:08;18.40;;;10.65;;
22334;SDS011;11335;43.848;25.958;2022-10-31T03:26:55;16.38;;;9.88;;
22334;SDS011;11335;43.848;25.958;2022-10-31T03:29:42;15.57;;;9.65;;
22334;SDS011;11335;43.848;25.958;2022-10-31T03:32:31;15.68;;;9.52;;
22334;SDS011;11335;43.848;25.958;2022-10-31T03:35:21;18.88;;;10.07;;
22334;SDS011;11335;43.848;25.958;2022-10-31T03:38:08;16.40;;;10.40;;
22334;SDS011;11335;43.848;25.958;2022-10-31T03:40:54;15.05;;;10.20;;
22334;SDS011;11335;43.848;25.958;2022-10-31T03:43:42;16.92;;;10.13;;
22334;SDS011;11335;43.848;25.958;2022-10-31T03:46:31;18.77;;;10.07;;
22334;SDS011;11335;43.848;25.958;2022-10-31T03:49:17;16.70;;;10.20;;
22334;SDS011;11335;43.848;25.958;2022-10-31T03:55:35;19.23;;;10.52;;
22334;SDS011;11335;43.848;25.958;2022-10-31T03:57:57;18.77;;;10.93;;
22334;SDS011;11335;43.848;25.958;2022-10-31T04:00:44;21.42;;;11.20;;
22334;SDS011;11335;43.848;25.958;2022-10-31T04:03:32;20.92;;;10.90;;
22334;SDS011;11335;43.848;25.958;2022-10-31T04:06:18;17.50;;;10.90;;
22334;SDS011;11335;43.848;25.958;2022-10-31T04:09:06;19.17;;;11.55;;
22334;SDS011;11335;43.848;25.958;2022-10-31T04:11:54;16.70;;;11.68;;
22334;SDS011;11335;43.848;25.958;2022-10-31T04:14:42;20.30;;;11.95;;
22334;SDS011;11335;43.848;25.958;2022-10-31T04:17:29;18.92;;;11.27;;
22334;SDS011;11335;43.848;25.958;2022-10-31T04:20:17;16.48;;;11.25;;
22334;SDS011;11335;43.848;25.958;2022-10-31T04:23:05;20.33;;;11.02;;
22334;SDS011;11335;43.848;25.958;2022-10-31T04:25:51;21.33;;;12.40;;
22334;SDS011;11335;43.848;25.958;2022-10-31T04:28:37;17.63;;;11.55;;
22334;SDS011;11335;43.848;25.958;2022-10-31T04:31:22;19.42;;;12.07;;
22334;SDS011;11335;43.848;25.958;2022-10-31T04:34:08;16.52;;;12.30;;
22334;SDS011;11335;43.848;25.958;2022-10-31T04:36:53;18.42;;;11.90;;
22334;SDS011;11335;43.848;25.958;2022-10-31T04:39:39;23.00;;;13.40;;
22334;SDS011;11335;43.848;25.958;2022-10-31T04:42:24;21.00;;;12.80;;
22334;SDS011;11335;43.848;25.958;2022-10-31T04:45:10;19.10;;;12.98;;
22334;SDS011;11335;43.848;25.958;2022-10-31T04:47:56;24.30;;;13.45;;
22334;SDS011;11335;43.848;25.958;2022-10-31T04:50:41;20.95;;;13.45;;
22334;SDS011;11335;43.848;25.958;2022-10-31T04:53:27;22.23;;;13.10;;
22334;SDS011;11335;43.848;25.958;2022-10-31T04:56:13;21.48;;;13.05;;
22334;SDS011;11335;43.848;25.958;2022-10-31T04:58:58;23.35;;;14.48;;
22334;SDS011;11335;43.848;25.958;2022-10-31T05:01:44;23.48;;;14.48;;
22334;SDS011;11335;43.848;25.958;2022-10-31T05:04:30;23.27;;;14.52;;
22334;SDS011;11335;43.848;25.958;2022-10-31T05:07:15;23.35;;;14.63;;
22334;SDS011;11335;43.848;25.958;2022-10-31T05:10:01;22.77;;;14.05;;
22334;SDS011;11335;43.848;25.958;2022-10-31T05:12:47;23.05;;;14.25;;
22334;SDS011;11335;43.848;25.958;2022-10-31T05:15:33;23.33;;;14.52;;
22334;SDS011;11335;43.848;25.958;2022-10-31T05:18:19;22.23;;;14.80;;
22334;SDS011;11335;43.848;25.958;2022-10-31T05:21:04;30.70;;;16.38;;
22334;SDS011;11335;43.848;25.958;2022-10-31T05:23:50;28.00;;;16.23;;
22334;SDS011;11335;43.848;25.958;2022-10-31T05:26:35;25.20;;;15.27;;
22334;SDS011;11335;43.848;25.958;2022-10-31T05:29:21;32.55;;;20.52;;
22334;SDS011;11335;43.848;25.958;2022-10-31T05:32:07;29.38;;;17.95;;
22334;SDS011;11335;43.848;25.958;2022-10-31T05:34:52;28.30;;;16.95;;
22334;SDS011;11335;43.848;25.958;2022-10-31T05:37:38;29.38;;;16.80;;
22334;SDS011;11335;43.848;25.958;2022-10-31T05:40:24;26.67;;;15.70;;
22334;SDS011;11335;43.848;25.958;2022-10-31T05:43:10;27.20;;;16.63;;
22334;SDS011;11335;43.848;25.958;2022-10-31T05:45:56;26.85;;;16.42;;
22334;SDS011;11335;43.848;25.958;2022-10-31T05:48:41;26.15;;;16.20;;
22334;SDS011;11335;43.848;25.958;2022-10-31T05:51:27;27.85;;;17.20;;
22334;SDS011;11335;43.848;25.958;2022-10-31T05:54:13;26.58;;;17.30;;
22334;SDS011;11335;43.848;25.958;2022-10-31T05:56:58;32.45;;;17.80;;
22334;SDS011;11335;43.848;25.958;2022-10-31T05:59:44;26.98;;;17.50;;
22334;SDS011;11335;43.848;25.958;2022-10-31T06:02:29;30.65;;;18.15;;
22334;SDS011;11335;43.848;25.958;2022-10-31T06:05:19;28.98;;;18.13;;
22334;SDS011;11335;43.848;25.958;2022-10-31T06:08:05;28.67;;;17.55;;
22334;SDS011;11335;43.848;25.958;2022-10-31T06:10:50;31.75;;;18.17;;
22334;SDS011;11335;43.848;25.958;2022-10-31T06:13:38;26.60;;;17.70;;
22334;SDS011;11335;43.848;25.958;2022-10-31T06:16:23;31.17;;;19.25;;
22334;SDS011;11335;43.848;25.958;2022-10-31T06:19:09;26.40;;;17.67;;
22334;SDS011;11335;43.848;25.958;2022-10-31T06:21:55;26.17;;;17.25;;
22334;SDS011;11335;43.848;25.958;2022-10-31T06:24:40;31.90;;;17.20;;
22334;SDS011;11335;43.848;25.958;2022-10-31T06:27:26;32.63;;;17.27;;
22334;SDS011;11335;43.848;25.958;2022-10-31T06:30:12;32.17;;;17.38;;
22334;SDS011;11335;43.848;25.958;2022-10-31T06:33:01;29.77;;;17.15;;
22334;SDS011;11335;43.848;25.958;2022-10-31T06:35:46;25.35;;;17.15;;
22334;SDS011;11335;43.848;25.958;2022-10-31T06:38:32;26.67;;;17.13;;
22334;SDS011;11335;43.848;25.958;2022-10-31T06:41:18;30.63;;;17.20;;
22334;SDS011;11335;43.848;25.958;2022-10-31T06:44:03;26.55;;;16.30;;
22334;SDS011;11335;43.848;25.958;2022-10-31T06:46:49;33.58;;;17.63;;
22334;SDS011;11335;43.848;25.958;2022-10-31T06:49:35;29.92;;;17.75;;
22334;SDS011;11335;43.848;25.958;2022-10-31T06:52:20;31.38;;;18.40;;
22334;SDS011;11335;43.848;25.958;2022-10-31T06:55:08;27.67;;;18.00;;
22334;SDS011;11335;43.848;25.958;2022-10-31T06:57:58;29.40;;;17.55;;
22334;SDS011;11335;43.848;25.958;2022-10-31T07:00:44;31.83;;;17.73;;
22334;SDS011;11335;43.848;25.958;2022-10-31T07:03:29;23.60;;;16.08;;
22334;SDS011;11335;43.848;25.958;2022-10-31T07:06:15;23.73;;;15.93;;
22334;SDS011;11335;43.848;25.958;2022-10-31T07:09:00;22.75;;;15.93;;
22334;SDS011;11335;43.848;25.958;2022-10-31T07:11:46;24.33;;;16.23;;
22334;SDS011;11335;43.848;25.958;2022-10-31T07:14:32;24.92;;;16.73;;
22334;SDS011;11335;43.848;25.958;2022-10-31T07:17:17;28.52;;;17.05;;
22334;SDS011;11335;43.848;25.958;2022-10-31T07:20:03;30.35;;;17.55;;
22334;SDS011;11335;43.848;25.958;2022-10-31T07:22:48;29.40;;;16.60;;
22334;SDS011;11335;43.848;25.958;2022-10-31T07:25:34;24.40;;;15.63;;
22334;SDS011;11335;43.848;25.958;2022-10-31T07:28:20;30.00;;;16.60;;
22334;SDS011;11335;43.848;25.958;2022-10-31T07:31:05;26.88;;;17.45;;
22334;SDS011;11335;43.848;25.958;2022-10-31T07:33:51;26.00;;;15.43;;
22334;SDS011;11335;43.848;25.958;2022-10-31T07:36:36;32.38;;;17.40;;
22334;SDS011;11335;43.848;25.958;2022-10-31T07:39:22;38.20;;;17.33;;
22334;SDS011;11335;43.848;25.958;2022-10-31T07:42:07;30.40;;;17.75;;
22334;SDS011;11335;43.848;25.958;2022-10-31T07:44:53;27.17;;;17.10;;
22334;SDS011;11335;43.848;25.958;2022-10-31T07:47:42;31.35;;;18.33;;
22334;SDS011;11335;43.848;25.958;2022-10-31T07:50:29;39.25;;;19.85;;
22334;SDS011;11335;43.848;25.958;2022-10-31T07:53:15;26.88;;;16.88;;
22334;SDS011;11335;43.848;25.958;2022-10-31T07:56:00;26.13;;;16.83;;
22334;SDS011;11335;43.848;25.958;2022-10-31T07:58:46;30.45;;;18.42;;
22334;SDS011;11335;43.848;25.958;2022-10-31T08:01:32;31.50;;;17.52;;
22334;SDS011;11335;43.848;25.958;2022-10-31T08:04:17;34.92;;;18.30;;
22334;SDS011;11335;43.848;25.958;2022-10-31T08:07:03;30.65;;;17.20;;
22334;SDS011;11335;43.848;25.958;2022-10-31T08:09:48;24.08;;;15.95;;
22334;SDS011;11335;43.848;25.958;2022-10-31T08:12:34;31.17;;;16.73;;
22334;SDS011;11335;43.848;25.958;2022-10-31T08:15:19;24.88;;;16.17;;
22334;SDS011;11335;43.848;25.958;2022-10-31T08:18:05;26.50;;;15.80;;
22334;SDS011;11335;43.848;25.958;2022-10-31T08:20:53;25.13;;;15.32;;
22334;SDS011;11335;43.848;25.958;2022-10-31T08:23:38;28.05;;;16.77;;
22334;SDS011;11335;43.848;25.958;2022-10-31T08:26:24;25.55;;;17.65;;
22334;SDS011;11335;43.848;25.958;2022-10-31T08:29:09;26.00;;;16.98;;
22334;SDS011;11335;43.848;25.958;2022-10-31T08:31:57;28.88;;;17.58;;
22334;SDS011;11335;43.848;25.958;2022-10-31T08:34:42;28.20;;;18.38;;
22334;SDS011;11335;43.848;25.958;2022-10-31T08:37:28;24.75;;;17.33;;
22334;SDS011;11335;43.848;25.958;2022-10-31T08:40:13;31.35;;;16.73;;
22334;SDS011;11335;43.848;25.958;2022-10-31T08:43:03;24.33;;;16.80;;
22334;SDS011;11335;43.848;25.958;2022-10-31T08:45:49;29.27;;;19.02;;
22334;SDS011;11335;43.848;25.958;2022-10-31T08:48:34;28.00;;;17.50;;
22334;SDS011;11335;43.848;25.958;2022-10-31T08:51:20;30.13;;;18.40;;
22334;SDS011;11335;43.848;25.958;2022-10-31T08:54:05;25.35;;;16.73;;
22334;SDS011;11335;43.848;25.958;2022-10-31T08:56:54;31.33;;;16.48;;
22334;SDS011;11335;43.848;25.958;2022-10-31T08:59:40;26.95;;;17.20;;
22334;SDS011;11335;43.848;25.958;2022-10-31T09:02:26;27.02;;;18.08;;
22334;SDS011;11335;43.848;25.958;2022-10-31T09:05:11;26.35;;;18.15;;
22334;SDS011;11335;43.848;25.958;2022-10-31T09:07:58;28.08;;;18.65;;
22334;SDS011;11335;43.848;25.958;2022-10-31T09:10:44;31.90;;;18.02;;
22334;SDS011;11335;43.848;25.958;2022-10-31T09:13:30;30.55;;;18.25;;
22334;SDS011;11335;43.848;25.958;2022-10-31T09:16:16;26.38;;;18.65;;
22334;SDS011;11335;43.848;25.958;2022-10-31T09:19:01;32.97;;;18.13;;
22334;SDS011;11335;43.848;25.958;2022-10-31T09:21:47;26.00;;;16.23;;
22334;SDS011;11335;43.848;25.958;2022-10-31T09:24:32;24.38;;;16.70;;
22334;SDS011;11335;43.848;25.958;2022-10-31T09:27:18;27.80;;;16.13;;
22334;SDS011;11335;43.848;25.958;2022-10-31T09:30:04;26.17;;;16.45;;
22334;SDS011;11335;43.848;25.958;2022-10-31T09:32:59;23.23;;;14.23;;
22334;SDS011;11335;43.848;25.958;2022-10-31T09:35:47;23.55;;;14.85;;
22334;SDS011;11335;43.848;25.958;2022-10-31T09:38:33;23.33;;;14.43;;
22334;SDS011;11335;43.848;25.958;2022-10-31T09:50:17;19.48;;;13.45;;
22334;SDS011;11335;43.848;25.958;2022-10-31T09:53:05;22.13;;;15.00;;
22334;SDS011;11335;43.848;25.958;2022-10-31T09:55:54;34.03;;;17.02;;
22334;SDS011;11335;43.848;25.958;2022-10-31T09:58:42;21.20;;;13.75;;
22334;SDS011;11335;43.848;25.958;2022-10-31T10:10:18;17.70;;;11.82;;
22334;SDS011;11335;43.848;25.958;2022-10-31T10:13:31;19.95;;;12.57;;
22334;SDS011;11335;43.848;25.958;2022-10-31T10:25:22;32.33;;;13.10;;
22334;SDS011;11335;43.848;25.958;2022-10-31T10:31:07;22.60;;;12.68;;
22334;SDS011;11335;43.848;25.958;2022-10-31T10:34:05;21.95;;;13.00;;
22334;SDS011;11335;43.848;25.958;2022-10-31T10:37:00;22.55;;;13.00;;
22334;SDS011;11335;43.848;25.958;2022-10-31T10:39:47;28.45;;;16.05;;
22334;SDS011;11335;43.848;25.958;2022-10-31T10:42:34;22.85;;;13.52;;
22334;SDS011;11335;43.848;25.958;2022-10-31T10:45:39;18.85;;;12.55;;
22334;SDS011;11335;43.848;25.958;2022-10-31T10:51:36;21.85;;;13.35;;
22334;SDS011;11335;43.848;25.958;2022-10-31T10:57:12;22.70;;;12.95;;
22334;SDS011;11335;43.848;25.958;2022-10-31T11:00:00;21.80;;;12.98;;
22334;SDS011;11335;43.848;25.958;2022-10-31T11:02:47;20.10;;;13.38;;
22334;SDS011;11335;43.848;25.958;2022-10-31T11:05:49;25.33;;;13.60;;
22334;SDS011;11335;43.848;25.958;2022-10-31T11:08:35;17.02;;;12.10;;
22334;SDS011;11335;43.848;25.958;2022-10-31T11:11:28;15.43;;;10.60;;
22334;SDS011;11335;43.848;25.958;2022-10-31T11:14:16;28.17;;;14.05;;
22334;SDS011;11335;43.848;25.958;2022-10-31T11:17:09;20.13;;;14.07;;
22334;SDS011;11335;43.848;25.958;2022-10-31T11:23:18;18.25;;;11.35;;
22334;SDS011;11335;43.848;25.958;2022-10-31T11:26:04;19.70;;;11.20;;
22334;SDS011;11335;43.848;25.958;2022-10-31T11:28:56;28.15;;;13.40;;
22334;SDS011;11335;43.848;25.958;2022-10-31T11:31:43;23.92;;;15.15;;
22334;SDS011;11335;43.848;25.958;2022-10-31T11:34:43;38.20;;;26.85;;
22334;SDS011;11335;43.848;25.958;2022-10-31T11:37:32;15.80;;;10.15;;
22334;SDS011;11335;43.848;25.958;2022-10-31T11:40:24;30.65;;;21.63;;
22334;SDS011;11335;43.848;25.958;2022-10-31T11:43:12;16.42;;;10.07;;
22334;SDS011;11335;43.848;25.958;2022-10-31T11:46:08;20.63;;;11.43;;
22334;SDS011;11335;43.848;25.958;2022-10-31T11:48:54;15.50;;;8.65;;
22334;SDS011;11335;43.848;25.958;2022-10-31T11:51:40;14.65;;;8.50;;
22334;SDS011;11335;43.848;25.958;2022-10-31T11:54:27;14.85;;;8.50;;
22334;SDS011;11335;43.848;25.958;2022-10-31T11:57:26;14.98;;;8.85;;
22334;SDS011;11335;43.848;25.958;2022-10-31T12:00:26;16.20;;;9.88;;
22334;SDS011;11335;43.848;25.958;2022-10-31T12:06:18;14.27;;;9.05;;
22334;SDS011;11335;43.848;25.958;2022-10-31T12:09:16;11.02;;;7.63;;
22334;SDS011;11335;43.848;25.958;2022-10-31T12:15:13;23.45;;;15.05;;
22334;SDS011;11335;43.848;25.958;2022-10-31T12:24:07;17.45;;;8.88;;
22334;SDS011;11335;43.848;25.958;2022-10-31T12:26:53;16.98;;;8.82;;
22334;SDS011;11335;43.848;25.958;2022-10-31T12:38:35;17.63;;;9.43;;
22334;SDS011;11335;43.848;25.958;2022-10-31T12:59:01;16.35;;;8.35;;
22334;SDS011;11335;43.848;25.958;2022-10-31T13:01:54;10.98;;;7.30;;
22334;SDS011;11335;43.848;25.958;2022-10-31T13:08:15;13.30;;;7.97;;
22334;SDS011;11335;43.848;25.958;2022-10-31T13:10:43;13.35;;;7.45;;
22334;SDS011;11335;43.848;25.958;2022-10-31T13:13:35;13.32;;;7.18;;
22334;SDS011;11335;43.848;25.958;2022-10-31T13:16:22;11.55;;;7.38;;
22334;SDS011;11335;43.848;25.958;2022-10-31T13:22:08;10.73;;;7.07;;
22334;SDS011;11335;43.848;25.958;2022-10-31T13:27:59;13.10;;;7.10;;
22334;SDS011;11335;43.848;25.958;2022-10-31T13:30:46;11.75;;;7.13;;
22334;SDS011;11335;43.848;25.958;2022-10-31T13:33:34;14.23;;;7.07;;
22334;SDS011;11335;43.848;25.958;2022-10-31T13:39:33;15.23;;;8.00;;
22334;SDS011;11335;43.848;25.958;2022-10-31T13:42:28;9.45;;;7.65;;
22334;SDS011;11335;43.848;25.958;2022-10-31T13:45:23;14.93;;;7.60;;
22334;SDS011;11335;43.848;25.958;2022-10-31T13:51:01;12.68;;;8.20;;
22334;SDS011;11335;43.848;25.958;2022-10-31T13:56:36;15.07;;;7.25;;
22334;SDS011;11335;43.848;25.958;2022-10-31T13:59:22;12.43;;;7.88;;
22334;SDS011;11335;43.848;25.958;2022-10-31T14:02:13;16.08;;;7.93;;
22334;SDS011;11335;43.848;25.958;2022-10-31T14:05:01;10.85;;;6.90;;
22334;SDS011;11335;43.848;25.958;2022-10-31T14:07:47;18.13;;;8.77;;
22334;SDS011;11335;43.848;25.958;2022-10-31T14:10:37;15.00;;;7.53;;
22334;SDS011;11335;43.848;25.958;2022-10-31T14:13:25;10.68;;;7.30;;
22334;SDS011;11335;43.848;25.958;2022-10-31T14:16:20;13.48;;;7.78;;
22334;SDS011;11335;43.848;25.958;2022-10-31T14:19:07;15.80;;;7.97;;
22334;SDS011;11335;43.848;25.958;2022-10-31T14:21:53;11.88;;;8.23;;
22334;SDS011;11335;43.848;25.958;2022-10-31T14:24:39;18.80;;;8.23;;
22334;SDS011;11335;43.848;25.958;2022-10-31T14:30:17;12.30;;;7.55;;
22334;SDS011;11335;43.848;25.958;2022-10-31T14:33:11;15.15;;;9.15;;
22334;SDS011;11335;43.848;25.958;2022-10-31T14:53:24;21.33;;;10.43;;
22334;SDS011;11335;43.848;25.958;2022-10-31T14:56:11;23.08;;;10.40;;
22334;SDS011;11335;43.848;25.958;2022-10-31T14:59:01;27.65;;;12.80;;
22334;SDS011;11335;43.848;25.958;2022-10-31T15:01:58;25.00;;;12.48;;
22334;SDS011;11335;43.848;25.958;2022-10-31T15:04:44;25.83;;;12.82;;
22334;SDS011;11335;43.848;25.958;2022-10-31T15:07:32;27.77;;;13.00;;
22334;SDS011;11335;43.848;25.958;2022-10-31T15:10:21;26.33;;;11.98;;
22334;SDS011;11335;43.848;25.958;2022-10-31T15:13:08;24.42;;;11.60;;
22334;SDS011;11335;43.848;25.958;2022-10-31T15:15:55;28.85;;;12.75;;
22334;SDS011;11335;43.848;25.958;2022-10-31T15:18:46;43.58;;;14.68;;
22334;SDS011;11335;43.848;25.958;2022-10-31T15:21:33;31.23;;;14.18;;
22334;SDS011;11335;43.848;25.958;2022-10-31T15:24:18;32.42;;;14.52;;
22334;SDS011;11335;43.848;25.958;2022-10-31T15:27:04;39.85;;;15.70;;
22334;SDS011;11335;43.848;25.958;2022-10-31T15:29:54;40.58;;;18.67;;
22334;SDS011;11335;43.848;25.958;2022-10-31T15:32:43;40.30;;;19.48;;
22334;SDS011;11335;43.848;25.958;2022-10-31T15:35:30;41.95;;;20.88;;
22334;SDS011;11335;43.848;25.958;2022-10-31T15:38:15;52.58;;;20.88;;
22334;SDS011;11335;43.848;25.958;2022-10-31T15:41:02;46.75;;;19.60;;
22334;SDS011;11335;43.848;25.958;2022-10-31T15:43:49;52.05;;;19.60;;
22334;SDS011;11335;43.848;25.958;2022-10-31T15:46:34;40.13;;;19.98;;
22334;SDS011;11335;43.848;25.958;2022-10-31T15:49:31;43.40;;;19.75;;
22334;SDS011;11335;43.848;25.958;2022-10-31T15:52:24;44.00;;;18.88;;
22334;SDS011;11335;43.848;25.958;2022-10-31T15:55:21;45.08;;;18.25;;
22334;SDS011;11335;43.848;25.958;2022-10-31T15:58:11;45.45;;;19.05;;
22334;SDS011;11335;43.848;25.958;2022-10-31T16:01:02;40.75;;;18.95;;
22334;SDS011;11335;43.848;25.958;2022-10-31T16:03:58;38.53;;;19.02;;
22334;SDS011;11335;43.848;25.958;2022-10-31T16:06:43;50.47;;;18.90;;
22334;SDS011;11335;43.848;25.958;2022-10-31T16:09:29;47.13;;;20.15;;
22334;SDS011;11335;43.848;25.958;2022-10-31T16:12:14;53.75;;;20.65;;
22334;SDS011;11335;43.848;25.958;2022-10-31T16:15:00;43.08;;;19.98;;
22334;SDS011;11335;43.848;25.958;2022-10-31T16:17:47;56.80;;;22.92;;
22334;SDS011;11335;43.848;25.958;2022-10-31T16:20:34;56.67;;;23.95;;
22334;SDS011;11335;43.848;25.958;2022-10-31T16:23:19;47.78;;;23.45;;
22334;SDS011;11335;43.848;25.958;2022-10-31T16:26:06;59.50;;;24.70;;
22334;SDS011;11335;43.848;25.958;2022-10-31T16:28:53;50.55;;;22.50;;
22334;SDS011;11335;43.848;25.958;2022-10-31T16:31:39;54.85;;;22.80;;
22334;SDS011;11335;43.848;25.958;2022-10-31T16:34:25;56.85;;;23.73;;
22334;SDS011;11335;43.848;25.958;2022-10-31T16:37:11;59.42;;;22.67;;
22334;SDS011;11335;43.848;25.958;2022-10-31T16:39:56;61.38;;;25.42;;
22334;SDS011;11335;43.848;25.958;2022-10-31T16:42:42;71.05;;;25.02;;
22334;SDS011;11335;43.848;25.958;2022-10-31T16:45:29;81.28;;;25.77;;
22334;SDS011;11335;43.848;25.958;2022-10-31T16:48:18;66.82;;;25.33;;
22334;SDS011;11335;43.848;25.958;2022-10-31T16:51:06;60.75;;;24.35;;
22334;SDS011;11335;43.848;25.958;2022-10-31T16:53:52;62.92;;;24.15;;
22334;SDS011;11335;43.848;25.958;2022-10-31T16:56:38;61.42;;;24.65;;
22334;SDS011;11335;43.848;25.958;2022-10-31T16:59:24;72.10;;;24.27;;
22334;SDS011;11335;43.848;25.958;2022-10-31T17:02:12;74.15;;;24.80;;
22334;SDS011;11335;43.848;25.958;2022-10-31T17:04:59;59.90;;;22.98;;
22334;SDS011;11335;43.848;25.958;2022-10-31T17:07:44;66.22;;;23.85;;
22334;SDS011;11335;43.848;25.958;2022-10-31T17:10:30;62.70;;;23.40;;
22334;SDS011;11335;43.848;25.958;2022-10-31T17:13:17;63.33;;;24.08;;
22334;SDS011;11335;43.848;25.958;2022-10-31T17:16:03;66.57;;;24.38;;
22334;SDS011;11335;43.848;25.958;2022-10-31T17:18:49;73.03;;;25.60;;
22334;SDS011;11335;43.848;25.958;2022-10-31T17:21:35;65.72;;;25.33;;
22334;SDS011;11335;43.848;25.958;2022-10-31T17:24:20;72.20;;;24.90;;
22334;SDS011;11335;43.848;25.958;2022-10-31T17:27:06;67.13;;;25.92;;
22334;SDS011;11335;43.848;25.958;2022-10-31T17:29:52;64.63;;;25.05;;
22334;SDS011;11335;43.848;25.958;2022-10-31T17:32:37;75.05;;;25.73;;
22334;SDS011;11335;43.848;25.958;2022-10-31T17:35:23;81.78;;;26.80;;
22334;SDS011;11335;43.848;25.958;2022-10-31T17:38:09;67.40;;;26.55;;
22334;SDS011;11335;43.848;25.958;2022-10-31T17:40:54;70.95;;;26.77;;
22334;SDS011;11335;43.848;25.958;2022-10-31T17:43:40;62.95;;;26.90;;
22334;SDS011;11335;43.848;25.958;2022-10-31T17:46:26;78.32;;;26.98;;
22334;SDS011;11335;43.848;25.958;2022-10-31T17:49:12;76.72;;;28.60;;
22334;SDS011;11335;43.848;25.958;2022-10-31T17:51:58;62.28;;;31.13;;
22334;SDS011;11335;43.848;25.958;2022-10-31T17:54:44;77.07;;;29.17;;
22334;SDS011;11335;43.848;25.958;2022-10-31T17:57:33;63.38;;;27.52;;
22334;SDS011;11335;43.848;25.958;2022-10-31T18:00:19;66.93;;;28.13;;
22334;SDS011;11335;43.848;25.958;2022-10-31T18:03:10;69.60;;;28.23;;
22334;SDS011;11335;43.848;25.958;2022-10-31T18:05:57;79.53;;;32.33;;
22334;SDS011;11335;43.848;25.958;2022-10-31T18:08:43;66.05;;;29.40;;
22334;SDS011;11335;43.848;25.958;2022-10-31T18:11:28;68.85;;;28.48;;
22334;SDS011;11335;43.848;25.958;2022-10-31T18:14:14;69.63;;;28.50;;
22334;SDS011;11335;43.848;25.958;2022-10-31T18:16:59;70.28;;;31.48;;
22334;SDS011;11335;43.848;25.958;2022-10-31T18:19:45;60.80;;;30.50;;
22334;SDS011;11335;43.848;25.958;2022-10-31T18:22:31;70.07;;;29.35;;
22334;SDS011;11335;43.848;25.958;2022-10-31T18:25:17;56.72;;;29.10;;
22334;SDS011;11335;43.848;25.958;2022-10-31T18:28:02;73.63;;;31.55;;
22334;SDS011;11335;43.848;25.958;2022-10-31T18:30:48;66.47;;;30.70;;
22334;SDS011;11335;43.848;25.958;2022-10-31T18:33:33;67.82;;;30.10;;